sensor_id;sensor_type;location;lat;lon;timestamp;P1;durP1;ratioP1;P2;durP2;ratioP2
61869;SDS011;47810;42.264;23.826;2022-07-23T00:00:17;6.68;;;3.05;;
61869;SDS011;47810;42.264;23.826;2022-07-23T00:02:44;6.28;;;3.20;;
61869;SDS011;47810;42.264;23.826;2022-07-23T00:05:10;7.32;;;3.50;;
61869;SDS011;47810;42.264;23.826;2022-07-23T00:07:36;5.88;;;2.92;;
61869;SDS011;47810;42.264;23.826;2022-07-23T00:10:02;9.75;;;3.30;;
61869;SDS011;47810;42.264;23.826;2022-07-23T00:12:28;10.02;;;3.50;;
61869;SDS011;47810;42.264;23.826;2022-07-23T00:14:54;6.00;;;3.00;;
61869;SDS011;47810;42.264;23.826;2022-07-23T00:17:20;7.15;;;3.35;;
61869;SDS011;47810;42.264;23.826;2022-07-23T00:19:48;7.00;;;3.55;;
61869;SDS011;47810;42.264;23.826;2022-07-23T00:22:15;10.13;;;3.88;;
61869;SDS011;47810;42.264;23.826;2022-07-23T00:24:40;6.40;;;2.97;;
61869;SDS011;47810;42.264;23.826;2022-07-23T00:27:06;6.60;;;3.15;;
61869;SDS011;47810;42.264;23.826;2022-07-23T00:29:32;7.97;;;3.25;;
61869;SDS011;47810;42.264;23.826;2022-07-23T00:31:58;10.18;;;3.45;;
61869;SDS011;47810;42.264;23.826;2022-07-23T00:34:23;8.55;;;3.03;;
61869;SDS011;47810;42.264;23.826;2022-07-23T00:36:50;9.27;;;3.22;;
61869;SDS011;47810;42.264;23.826;2022-07-23T00:39:19;9.00;;;3.45;;
61869;SDS011;47810;42.264;23.826;2022-07-23T00:41:48;9.10;;;3.38;;
61869;SDS011;47810;42.264;23.826;2022-07-23T00:44:22;7.45;;;3.50;;
61869;SDS011;47810;42.264;23.826;2022-07-23T00:46:50;6.90;;;3.13;;
61869;SDS011;47810;42.264;23.826;2022-07-23T00:49:19;7.70;;;3.28;;
61869;SDS011;47810;42.264;23.826;2022-07-23T00:51:46;8.20;;;3.50;;
61869;SDS011;47810;42.264;23.826;2022-07-23T00:54:14;8.02;;;3.67;;
61869;SDS011;47810;42.264;23.826;2022-07-23T00:56:40;6.97;;;3.53;;
61869;SDS011;47810;42.264;23.826;2022-07-23T00:59:08;8.10;;;3.83;;
61869;SDS011;47810;42.264;23.826;2022-07-23T01:01:34;9.60;;;3.83;;
61869;SDS011;47810;42.264;23.826;2022-07-23T01:04:00;8.52;;;3.78;;
61869;SDS011;47810;42.264;23.826;2022-07-23T01:06:26;11.95;;;4.00;;
61869;SDS011;47810;42.264;23.826;2022-07-23T01:08:53;7.35;;;3.88;;
61869;SDS011;47810;42.264;23.826;2022-07-23T01:11:20;7.72;;;3.53;;
61869;SDS011;47810;42.264;23.826;2022-07-23T01:13:46;9.68;;;3.55;;
61869;SDS011;47810;42.264;23.826;2022-07-23T01:16:13;8.13;;;3.70;;
61869;SDS011;47810;42.264;23.826;2022-07-23T01:18:38;9.50;;;3.60;;
61869;SDS011;47810;42.264;23.826;2022-07-23T01:21:05;6.90;;;3.70;;
61869;SDS011;47810;42.264;23.826;2022-07-23T01:23:31;9.13;;;3.80;;
61869;SDS011;47810;42.264;23.826;2022-07-23T01:25:57;9.63;;;3.75;;
61869;SDS011;47810;42.264;23.826;2022-07-23T01:28:23;8.55;;;3.92;;
61869;SDS011;47810;42.264;23.826;2022-07-23T01:30:48;8.07;;;3.78;;
61869;SDS011;47810;42.264;23.826;2022-07-23T01:33:15;7.90;;;3.67;;
61869;SDS011;47810;42.264;23.826;2022-07-23T01:35:41;9.75;;;3.85;;
61869;SDS011;47810;42.264;23.826;2022-07-23T01:38:06;7.35;;;3.40;;
61869;SDS011;47810;42.264;23.826;2022-07-23T01:40:32;9.48;;;3.63;;
61869;SDS011;47810;42.264;23.826;2022-07-23T01:42:59;8.10;;;4.00;;
61869;SDS011;47810;42.264;23.826;2022-07-23T01:45:25;7.15;;;3.80;;
61869;SDS011;47810;42.264;23.826;2022-07-23T01:47:51;7.57;;;3.50;;
61869;SDS011;47810;42.264;23.826;2022-07-23T01:50:17;10.15;;;3.55;;
61869;SDS011;47810;42.264;23.826;2022-07-23T01:52:42;8.32;;;3.80;;
61869;SDS011;47810;42.264;23.826;2022-07-23T01:55:09;8.88;;;3.72;;
61869;SDS011;47810;42.264;23.826;2022-07-23T01:57:34;10.32;;;3.72;;
61869;SDS011;47810;42.264;23.826;2022-07-23T02:00:00;7.60;;;3.75;;
61869;SDS011;47810;42.264;23.826;2022-07-23T02:02:26;6.93;;;3.70;;
61869;SDS011;47810;42.264;23.826;2022-07-23T02:04:52;9.63;;;3.90;;
61869;SDS011;47810;42.264;23.826;2022-07-23T02:07:17;10.13;;;3.83;;
61869;SDS011;47810;42.264;23.826;2022-07-23T02:09:43;8.77;;;4.28;;
61869;SDS011;47810;42.264;23.826;2022-07-23T02:12:10;8.20;;;4.20;;
61869;SDS011;47810;42.264;23.826;2022-07-23T02:14:35;9.88;;;3.58;;
61869;SDS011;47810;42.264;23.826;2022-07-23T02:17:02;6.40;;;3.35;;
61869;SDS011;47810;42.264;23.826;2022-07-23T02:19:28;7.07;;;3.58;;
61869;SDS011;47810;42.264;23.826;2022-07-23T02:21:54;8.43;;;3.63;;
61869;SDS011;47810;42.264;23.826;2022-07-23T02:24:20;6.65;;;3.50;;
61869;SDS011;47810;42.264;23.826;2022-07-23T02:26:46;6.15;;;3.38;;
61869;SDS011;47810;42.264;23.826;2022-07-23T02:29:12;6.95;;;3.70;;
61869;SDS011;47810;42.264;23.826;2022-07-23T02:31:38;8.57;;;3.83;;
61869;SDS011;47810;42.264;23.826;2022-07-23T02:34:04;7.68;;;3.40;;
61869;SDS011;47810;42.264;23.826;2022-07-23T02:36:30;8.57;;;3.55;;
61869;SDS011;47810;42.264;23.826;2022-07-23T02:38:56;6.28;;;3.42;;
61869;SDS011;47810;42.264;23.826;2022-07-23T02:41:22;9.43;;;3.50;;
61869;SDS011;47810;42.264;23.826;2022-07-23T02:43:48;7.60;;;3.38;;
61869;SDS011;47810;42.264;23.826;2022-07-23T02:46:14;8.90;;;3.50;;
61869;SDS011;47810;42.264;23.826;2022-07-23T02:48:40;7.82;;;4.00;;
61869;SDS011;47810;42.264;23.826;2022-07-23T02:51:06;8.25;;;3.42;;
61869;SDS011;47810;42.264;23.826;2022-07-23T02:53:31;6.57;;;3.70;;
61869;SDS011;47810;42.264;23.826;2022-07-23T02:55:57;10.27;;;3.42;;
61869;SDS011;47810;42.264;23.826;2022-07-23T02:58:23;8.38;;;3.83;;
61869;SDS011;47810;42.264;23.826;2022-07-23T03:00:50;8.50;;;3.78;;
61869;SDS011;47810;42.264;23.826;2022-07-23T03:03:16;10.88;;;3.58;;
61869;SDS011;47810;42.264;23.826;2022-07-23T03:05:41;12.85;;;3.92;;
61869;SDS011;47810;42.264;23.826;2022-07-23T03:08:07;9.48;;;3.55;;
61869;SDS011;47810;42.264;23.826;2022-07-23T03:10:33;7.07;;;3.72;;
61869;SDS011;47810;42.264;23.826;2022-07-23T03:12:59;6.63;;;3.65;;
61869;SDS011;47810;42.264;23.826;2022-07-23T03:15:24;10.88;;;3.78;;
61869;SDS011;47810;42.264;23.826;2022-07-23T03:17:50;7.68;;;3.97;;
61869;SDS011;47810;42.264;23.826;2022-07-23T03:20:16;9.48;;;3.90;;
61869;SDS011;47810;42.264;23.826;2022-07-23T03:22:42;9.05;;;4.28;;
61869;SDS011;47810;42.264;23.826;2022-07-23T03:25:08;10.23;;;4.18;;
61869;SDS011;47810;42.264;23.826;2022-07-23T03:27:34;18.60;;;4.70;;
61869;SDS011;47810;42.264;23.826;2022-07-23T03:30:00;9.35;;;3.97;;
61869;SDS011;47810;42.264;23.826;2022-07-23T03:32:26;15.38;;;4.72;;
61869;SDS011;47810;42.264;23.826;2022-07-23T03:34:52;11.70;;;4.30;;
61869;SDS011;47810;42.264;23.826;2022-07-23T03:37:18;14.40;;;4.63;;
61869;SDS011;47810;42.264;23.826;2022-07-23T03:39:45;12.80;;;3.97;;
61869;SDS011;47810;42.264;23.826;2022-07-23T03:42:11;13.60;;;3.97;;
61869;SDS011;47810;42.264;23.826;2022-07-23T03:44:37;6.55;;;3.47;;
61869;SDS011;47810;42.264;23.826;2022-07-23T03:47:04;9.20;;;4.18;;
61869;SDS011;47810;42.264;23.826;2022-07-23T03:49:31;10.32;;;4.30;;
61869;SDS011;47810;42.264;23.826;2022-07-23T03:51:57;24.98;;;4.85;;
61869;SDS011;47810;42.264;23.826;2022-07-23T03:54:23;10.68;;;4.32;;
61869;SDS011;47810;42.264;23.826;2022-07-23T03:56:50;10.63;;;4.45;;
61869;SDS011;47810;42.264;23.826;2022-07-23T03:59:15;10.75;;;4.53;;
61869;SDS011;47810;42.264;23.826;2022-07-23T04:01:41;9.68;;;4.15;;
61869;SDS011;47810;42.264;23.826;2022-07-23T04:04:07;79.38;;;6.22;;
61869;SDS011;47810;42.264;23.826;2022-07-23T04:06:34;26.15;;;5.07;;
61869;SDS011;47810;42.264;23.826;2022-07-23T04:09:00;10.52;;;4.15;;
61869;SDS011;47810;42.264;23.826;2022-07-23T04:11:26;14.40;;;4.82;;
61869;SDS011;47810;42.264;23.826;2022-07-23T04:13:52;10.77;;;4.53;;
61869;SDS011;47810;42.264;23.826;2022-07-23T04:16:18;20.50;;;4.82;;
61869;SDS011;47810;42.264;23.826;2022-07-23T04:18:44;16.80;;;5.15;;
61869;SDS011;47810;42.264;23.826;2022-07-23T04:21:10;13.52;;;4.20;;
61869;SDS011;47810;42.264;23.826;2022-07-23T04:23:36;8.27;;;3.85;;
61869;SDS011;47810;42.264;23.826;2022-07-23T04:26:02;12.38;;;4.90;;
61869;SDS011;47810;42.264;23.826;2022-07-23T04:28:28;9.23;;;4.55;;
61869;SDS011;47810;42.264;23.826;2022-07-23T04:30:57;16.17;;;4.85;;
61869;SDS011;47810;42.264;23.826;2022-07-23T04:33:24;13.00;;;5.03;;
61869;SDS011;47810;42.264;23.826;2022-07-23T04:35:50;12.85;;;4.57;;
61869;SDS011;47810;42.264;23.826;2022-07-23T04:38:16;31.35;;;6.57;;
61869;SDS011;47810;42.264;23.826;2022-07-23T04:40:42;28.25;;;5.45;;
61869;SDS011;47810;42.264;23.826;2022-07-23T04:43:10;17.48;;;4.68;;
61869;SDS011;47810;42.264;23.826;2022-07-23T04:45:36;13.45;;;5.50;;
61869;SDS011;47810;42.264;23.826;2022-07-23T04:48:02;22.63;;;7.93;;
61869;SDS011;47810;42.264;23.826;2022-07-23T04:50:28;27.92;;;11.93;;
61869;SDS011;47810;42.264;23.826;2022-07-23T04:52:53;24.52;;;11.20;;
61869;SDS011;47810;42.264;23.826;2022-07-23T04:55:19;25.40;;;10.82;;
61869;SDS011;47810;42.264;23.826;2022-07-23T04:57:45;28.35;;;10.48;;
61869;SDS011;47810;42.264;23.826;2022-07-23T05:00:11;20.02;;;8.98;;
61869;SDS011;47810;42.264;23.826;2022-07-23T05:02:37;21.48;;;7.57;;
61869;SDS011;47810;42.264;23.826;2022-07-23T05:05:03;15.75;;;6.85;;
61869;SDS011;47810;42.264;23.826;2022-07-23T05:07:29;16.45;;;7.25;;
61869;SDS011;47810;42.264;23.826;2022-07-23T05:09:54;17.63;;;7.18;;
61869;SDS011;47810;42.264;23.826;2022-07-23T05:12:20;22.95;;;7.43;;
61869;SDS011;47810;42.264;23.826;2022-07-23T05:14:46;23.88;;;7.60;;
61869;SDS011;47810;42.264;23.826;2022-07-23T05:17:11;17.50;;;6.93;;
61869;SDS011;47810;42.264;23.826;2022-07-23T05:19:37;14.07;;;6.60;;
61869;SDS011;47810;42.264;23.826;2022-07-23T05:22:03;13.80;;;6.45;;
61869;SDS011;47810;42.264;23.826;2022-07-23T05:24:29;15.25;;;6.22;;
61869;SDS011;47810;42.264;23.826;2022-07-23T05:26:55;22.02;;;6.70;;
61869;SDS011;47810;42.264;23.826;2022-07-23T05:29:21;65.05;;;8.50;;
61869;SDS011;47810;42.264;23.826;2022-07-23T05:31:46;21.55;;;6.53;;
61869;SDS011;47810;42.264;23.826;2022-07-23T05:34:12;13.52;;;5.93;;
61869;SDS011;47810;42.264;23.826;2022-07-23T05:36:38;10.10;;;4.93;;
61869;SDS011;47810;42.264;23.826;2022-07-23T05:39:04;9.82;;;4.93;;
61869;SDS011;47810;42.264;23.826;2022-07-23T05:41:30;13.57;;;4.85;;
61869;SDS011;47810;42.264;23.826;2022-07-23T05:43:56;15.88;;;5.45;;
61869;SDS011;47810;42.264;23.826;2022-07-23T05:46:22;16.23;;;5.53;;
61869;SDS011;47810;42.264;23.826;2022-07-23T05:48:48;10.57;;;5.05;;
61869;SDS011;47810;42.264;23.826;2022-07-23T05:51:22;8.32;;;4.72;;
61869;SDS011;47810;42.264;23.826;2022-07-23T05:53:49;8.82;;;5.25;;
61869;SDS011;47810;42.264;23.826;2022-07-23T05:56:16;8.52;;;4.75;;
61869;SDS011;47810;42.264;23.826;2022-07-23T05:58:42;10.23;;;4.93;;
61869;SDS011;47810;42.264;23.826;2022-07-23T06:01:08;10.20;;;4.95;;
61869;SDS011;47810;42.264;23.826;2022-07-23T06:03:34;10.05;;;4.88;;
61869;SDS011;47810;42.264;23.826;2022-07-23T06:06:00;9.45;;;5.03;;
61869;SDS011;47810;42.264;23.826;2022-07-23T06:08:25;21.95;;;12.13;;
61869;SDS011;47810;42.264;23.826;2022-07-23T06:10:52;11.75;;;6.40;;
61869;SDS011;47810;42.264;23.826;2022-07-23T06:13:18;9.50;;;5.22;;
61869;SDS011;47810;42.264;23.826;2022-07-23T06:15:44;10.13;;;4.90;;
61869;SDS011;47810;42.264;23.826;2022-07-23T06:18:10;10.70;;;4.78;;
61869;SDS011;47810;42.264;23.826;2022-07-23T06:20:36;12.15;;;4.72;;
61869;SDS011;47810;42.264;23.826;2022-07-23T06:23:05;11.82;;;4.85;;
61869;SDS011;47810;42.264;23.826;2022-07-23T06:25:31;10.70;;;4.60;;
61869;SDS011;47810;42.264;23.826;2022-07-23T06:27:57;9.85;;;5.00;;
61869;SDS011;47810;42.264;23.826;2022-07-23T06:30:23;12.55;;;5.18;;
61869;SDS011;47810;42.264;23.826;2022-07-23T06:32:49;10.38;;;4.85;;
61869;SDS011;47810;42.264;23.826;2022-07-23T06:35:17;9.95;;;4.38;;
61869;SDS011;47810;42.264;23.826;2022-07-23T06:37:43;12.20;;;4.68;;
61869;SDS011;47810;42.264;23.826;2022-07-23T06:40:10;26.15;;;5.75;;
61869;SDS011;47810;42.264;23.826;2022-07-23T06:42:36;11.35;;;4.70;;
61869;SDS011;47810;42.264;23.826;2022-07-23T06:45:05;13.70;;;5.10;;
61869;SDS011;47810;42.264;23.826;2022-07-23T06:47:31;8.98;;;4.85;;
61869;SDS011;47810;42.264;23.826;2022-07-23T06:49:57;9.52;;;4.38;;
61869;SDS011;47810;42.264;23.826;2022-07-23T06:52:23;11.00;;;4.47;;
61869;SDS011;47810;42.264;23.826;2022-07-23T06:54:49;9.18;;;4.40;;
61869;SDS011;47810;42.264;23.826;2022-07-23T06:57:15;12.70;;;4.80;;
61869;SDS011;47810;42.264;23.826;2022-07-23T06:59:40;23.17;;;4.90;;
61869;SDS011;47810;42.264;23.826;2022-07-23T07:02:07;13.48;;;5.43;;
61869;SDS011;47810;42.264;23.826;2022-07-23T07:04:33;10.07;;;4.80;;
61869;SDS011;47810;42.264;23.826;2022-07-23T07:06:59;9.57;;;5.20;;
61869;SDS011;47810;42.264;23.826;2022-07-23T07:09:26;13.68;;;6.05;;
61869;SDS011;47810;42.264;23.826;2022-07-23T07:11:51;11.25;;;5.03;;
61869;SDS011;47810;42.264;23.826;2022-07-23T07:14:17;12.10;;;5.30;;
61869;SDS011;47810;42.264;23.826;2022-07-23T07:16:44;17.17;;;4.80;;
61869;SDS011;47810;42.264;23.826;2022-07-23T07:19:09;10.40;;;4.68;;
61869;SDS011;47810;42.264;23.826;2022-07-23T07:21:35;9.70;;;4.70;;
61869;SDS011;47810;42.264;23.826;2022-07-23T07:24:01;8.40;;;4.32;;
61869;SDS011;47810;42.264;23.826;2022-07-23T07:26:27;9.68;;;4.40;;
61869;SDS011;47810;42.264;23.826;2022-07-23T07:28:53;8.30;;;4.95;;
61869;SDS011;47810;42.264;23.826;2022-07-23T07:31:19;10.85;;;5.03;;
61869;SDS011;47810;42.264;23.826;2022-07-23T07:33:47;11.38;;;4.75;;
61869;SDS011;47810;42.264;23.826;2022-07-23T07:36:13;9.88;;;4.85;;
61869;SDS011;47810;42.264;23.826;2022-07-23T07:38:39;9.65;;;4.60;;
61869;SDS011;47810;42.264;23.826;2022-07-23T07:41:05;7.50;;;4.57;;
61869;SDS011;47810;42.264;23.826;2022-07-23T07:43:31;11.82;;;4.65;;
61869;SDS011;47810;42.264;23.826;2022-07-23T07:45:56;7.35;;;4.32;;
61869;SDS011;47810;42.264;23.826;2022-07-23T07:48:22;9.70;;;4.82;;
61869;SDS011;47810;42.264;23.826;2022-07-23T07:50:48;11.32;;;4.90;;
61869;SDS011;47810;42.264;23.826;2022-07-23T07:53:14;9.38;;;5.15;;
61869;SDS011;47810;42.264;23.826;2022-07-23T07:55:40;11.10;;;4.97;;
61869;SDS011;47810;42.264;23.826;2022-07-23T07:58:05;11.13;;;4.90;;
61869;SDS011;47810;42.264;23.826;2022-07-23T08:00:31;9.95;;;4.55;;
61869;SDS011;47810;42.264;23.826;2022-07-23T08:02:58;18.30;;;5.55;;
61869;SDS011;47810;42.264;23.826;2022-07-23T08:05:26;9.07;;;4.50;;
61869;SDS011;47810;42.264;23.826;2022-07-23T08:07:52;9.20;;;4.90;;
61869;SDS011;47810;42.264;23.826;2022-07-23T08:10:19;7.60;;;4.35;;
61869;SDS011;47810;42.264;23.826;2022-07-23T08:12:46;8.05;;;4.78;;
61869;SDS011;47810;42.264;23.826;2022-07-23T08:15:17;9.98;;;4.63;;
61869;SDS011;47810;42.264;23.826;2022-07-23T08:17:45;8.05;;;4.50;;
61869;SDS011;47810;42.264;23.826;2022-07-23T08:20:12;9.77;;;4.30;;
61869;SDS011;47810;42.264;23.826;2022-07-23T08:22:55;8.63;;;4.63;;
61869;SDS011;47810;42.264;23.826;2022-07-23T08:25:25;8.40;;;4.43;;
61869;SDS011;47810;42.264;23.826;2022-07-23T08:27:52;7.20;;;4.38;;
61869;SDS011;47810;42.264;23.826;2022-07-23T08:30:19;15.13;;;4.60;;
61869;SDS011;47810;42.264;23.826;2022-07-23T08:32:49;9.18;;;4.40;;
61869;SDS011;47810;42.264;23.826;2022-07-23T08:35:16;7.57;;;4.50;;
61869;SDS011;47810;42.264;23.826;2022-07-23T08:37:42;10.50;;;4.63;;
61869;SDS011;47810;42.264;23.826;2022-07-23T08:40:08;8.05;;;4.45;;
61869;SDS011;47810;42.264;23.826;2022-07-23T08:42:35;9.32;;;4.28;;
61869;SDS011;47810;42.264;23.826;2022-07-23T08:45:02;8.85;;;4.28;;
61869;SDS011;47810;42.264;23.826;2022-07-23T08:47:29;9.73;;;4.60;;
61869;SDS011;47810;42.264;23.826;2022-07-23T08:49:56;10.13;;;4.00;;
61869;SDS011;47810;42.264;23.826;2022-07-23T08:52:26;10.30;;;4.50;;
61869;SDS011;47810;42.264;23.826;2022-07-23T08:54:54;6.65;;;4.10;;
61869;SDS011;47810;42.264;23.826;2022-07-23T08:57:20;8.82;;;4.15;;
61869;SDS011;47810;42.264;23.826;2022-07-23T08:59:47;9.95;;;4.07;;
61869;SDS011;47810;42.264;23.826;2022-07-23T09:02:19;7.45;;;4.38;;
61869;SDS011;47810;42.264;23.826;2022-07-23T09:04:46;8.40;;;4.03;;
61869;SDS011;47810;42.264;23.826;2022-07-23T09:07:13;6.28;;;3.83;;
61869;SDS011;47810;42.264;23.826;2022-07-23T09:09:39;9.55;;;4.05;;
61869;SDS011;47810;42.264;23.826;2022-07-23T09:12:06;8.15;;;4.45;;
61869;SDS011;47810;42.264;23.826;2022-07-23T09:14:43;6.63;;;3.97;;
61869;SDS011;47810;42.264;23.826;2022-07-23T09:17:13;6.63;;;4.20;;
61869;SDS011;47810;42.264;23.826;2022-07-23T09:19:41;8.10;;;3.92;;
61869;SDS011;47810;42.264;23.826;2022-07-23T09:22:24;6.90;;;4.07;;
61869;SDS011;47810;42.264;23.826;2022-07-23T09:25:16;7.80;;;4.00;;
61869;SDS011;47810;42.264;23.826;2022-07-23T09:27:55;9.38;;;4.25;;
61869;SDS011;47810;42.264;23.826;2022-07-23T09:30:28;6.85;;;4.28;;
61869;SDS011;47810;42.264;23.826;2022-07-23T09:33:06;6.53;;;4.00;;
61869;SDS011;47810;42.264;23.826;2022-07-23T09:38:12;10.45;;;4.25;;
61869;SDS011;47810;42.264;23.826;2022-07-23T09:40:38;10.68;;;4.03;;
61869;SDS011;47810;42.264;23.826;2022-07-23T09:43:04;8.13;;;4.28;;
61869;SDS011;47810;42.264;23.826;2022-07-23T09:45:32;8.20;;;4.00;;
61869;SDS011;47810;42.264;23.826;2022-07-23T09:48:15;7.68;;;4.22;;
61869;SDS011;47810;42.264;23.826;2022-07-23T09:50:42;7.82;;;4.18;;
61869;SDS011;47810;42.264;23.826;2022-07-23T09:53:23;9.43;;;4.68;;
61869;SDS011;47810;42.264;23.826;2022-07-23T09:55:54;18.58;;;4.53;;
61869;SDS011;47810;42.264;23.826;2022-07-23T09:58:25;16.25;;;4.32;;
61869;SDS011;47810;42.264;23.826;2022-07-23T10:00:54;7.55;;;3.70;;
61869;SDS011;47810;42.264;23.826;2022-07-23T10:03:29;7.95;;;3.60;;
61869;SDS011;47810;42.264;23.826;2022-07-23T10:05:58;9.63;;;4.40;;
61869;SDS011;47810;42.264;23.826;2022-07-23T10:08:25;10.15;;;4.35;;
61869;SDS011;47810;42.264;23.826;2022-07-23T10:10:51;8.02;;;4.07;;
61869;SDS011;47810;42.264;23.826;2022-07-23T10:13:20;10.02;;;4.15;;
61869;SDS011;47810;42.264;23.826;2022-07-23T10:15:58;8.60;;;4.15;;
61869;SDS011;47810;42.264;23.826;2022-07-23T10:18:24;12.85;;;4.10;;
61869;SDS011;47810;42.264;23.826;2022-07-23T10:20:55;7.28;;;3.85;;
61869;SDS011;47810;42.264;23.826;2022-07-23T10:26:03;17.58;;;5.10;;
61869;SDS011;47810;42.264;23.826;2022-07-23T10:33:45;10.32;;;4.60;;
61869;SDS011;47810;42.264;23.826;2022-07-23T10:39:22;15.88;;;4.68;;
61869;SDS011;47810;42.264;23.826;2022-07-23T10:41:51;6.75;;;3.97;;
61869;SDS011;47810;42.264;23.826;2022-07-23T10:44:18;18.98;;;4.32;;
61869;SDS011;47810;42.264;23.826;2022-07-23T10:49:33;11.57;;;4.03;;
61869;SDS011;47810;42.264;23.826;2022-07-23T10:57:07;8.10;;;3.53;;
61869;SDS011;47810;42.264;23.826;2022-07-23T11:02:32;9.65;;;3.90;;
61869;SDS011;47810;42.264;23.826;2022-07-23T11:11:11;11.32;;;3.90;;
61869;SDS011;47810;42.264;23.826;2022-07-23T11:13:31;10.30;;;4.30;;
61869;SDS011;47810;42.264;23.826;2022-07-23T11:16:04;12.60;;;4.97;;
61869;SDS011;47810;42.264;23.826;2022-07-23T11:23:57;6.82;;;3.88;;
61869;SDS011;47810;42.264;23.826;2022-07-23T11:37:07;9.23;;;4.15;;
61869;SDS011;47810;42.264;23.826;2022-07-23T11:39:35;15.80;;;4.65;;
61869;SDS011;47810;42.264;23.826;2022-07-23T11:42:11;9.98;;;4.20;;
61869;SDS011;47810;42.264;23.826;2022-07-23T11:44:46;11.48;;;4.25;;
61869;SDS011;47810;42.264;23.826;2022-07-23T11:47:14;16.70;;;4.30;;
61869;SDS011;47810;42.264;23.826;2022-07-23T11:49:51;20.00;;;4.53;;
61869;SDS011;47810;42.264;23.826;2022-07-23T11:52:18;10.90;;;3.85;;
61869;SDS011;47810;42.264;23.826;2022-07-23T11:54:54;8.90;;;3.55;;
61869;SDS011;47810;42.264;23.826;2022-07-23T11:57:23;11.02;;;4.47;;
61869;SDS011;47810;42.264;23.826;2022-07-23T11:59:55;15.55;;;4.20;;
61869;SDS011;47810;42.264;23.826;2022-07-23T12:02:23;8.18;;;3.50;;
61869;SDS011;47810;42.264;23.826;2022-07-23T12:04:50;128.43;;;10.15;;
61869;SDS011;47810;42.264;23.826;2022-07-23T12:09:58;8.02;;;3.80;;
61869;SDS011;47810;42.264;23.826;2022-07-23T12:15:00;7.88;;;3.22;;
61869;SDS011;47810;42.264;23.826;2022-07-23T12:17:28;12.07;;;3.17;;
61869;SDS011;47810;42.264;23.826;2022-07-23T12:19:59;12.43;;;3.80;;
61869;SDS011;47810;42.264;23.826;2022-07-23T12:22:33;11.98;;;3.67;;
61869;SDS011;47810;42.264;23.826;2022-07-23T12:25:22;7.40;;;3.05;;
61869;SDS011;47810;42.264;23.826;2022-07-23T12:30:48;15.23;;;3.20;;
61869;SDS011;47810;42.264;23.826;2022-07-23T12:33:21;12.85;;;3.40;;
61869;SDS011;47810;42.264;23.826;2022-07-23T12:35:52;11.02;;;4.07;;
61869;SDS011;47810;42.264;23.826;2022-07-23T12:38:20;7.90;;;3.55;;
61869;SDS011;47810;42.264;23.826;2022-07-23T12:40:49;8.85;;;4.03;;
61869;SDS011;47810;42.264;23.826;2022-07-23T12:43:26;11.70;;;3.70;;
61869;SDS011;47810;42.264;23.826;2022-07-23T12:45:53;10.15;;;3.38;;
61869;SDS011;47810;42.264;23.826;2022-07-23T12:48:22;11.18;;;3.47;;
61869;SDS011;47810;42.264;23.826;2022-07-23T12:51:08;8.60;;;3.40;;
61869;SDS011;47810;42.264;23.826;2022-07-23T12:53:50;10.95;;;3.55;;
61869;SDS011;47810;42.264;23.826;2022-07-23T12:56:26;11.13;;;3.60;;
61869;SDS011;47810;42.264;23.826;2022-07-23T13:01:29;12.50;;;3.47;;
61869;SDS011;47810;42.264;23.826;2022-07-23T13:04:13;8.95;;;3.28;;
61869;SDS011;47810;42.264;23.826;2022-07-23T13:09:28;9.68;;;3.28;;
61869;SDS011;47810;42.264;23.826;2022-07-23T13:11:56;8.68;;;3.05;;
61869;SDS011;47810;42.264;23.826;2022-07-23T13:14:24;7.47;;;3.28;;
61869;SDS011;47810;42.264;23.826;2022-07-23T13:16:51;9.48;;;3.13;;
61869;SDS011;47810;42.264;23.826;2022-07-23T13:19:18;12.90;;;4.00;;
61869;SDS011;47810;42.264;23.826;2022-07-23T13:21:47;11.98;;;2.88;;
61869;SDS011;47810;42.264;23.826;2022-07-23T13:24:14;10.88;;;3.25;;
61869;SDS011;47810;42.264;23.826;2022-07-23T13:26:43;14.50;;;3.20;;
61869;SDS011;47810;42.264;23.826;2022-07-23T13:29:09;12.27;;;4.20;;
61869;SDS011;47810;42.264;23.826;2022-07-23T13:31:35;13.90;;;3.03;;
61869;SDS011;47810;42.264;23.826;2022-07-23T13:34:02;9.32;;;3.78;;
61869;SDS011;47810;42.264;23.826;2022-07-23T13:36:30;9.55;;;3.17;;
61869;SDS011;47810;42.264;23.826;2022-07-23T13:38:55;14.20;;;3.58;;
61869;SDS011;47810;42.264;23.826;2022-07-23T13:41:21;12.15;;;3.10;;
61869;SDS011;47810;42.264;23.826;2022-07-23T13:43:50;15.27;;;4.00;;
61869;SDS011;47810;42.264;23.826;2022-07-23T13:46:16;10.20;;;3.42;;
61869;SDS011;47810;42.264;23.826;2022-07-23T13:48:41;13.00;;;3.20;;
61869;SDS011;47810;42.264;23.826;2022-07-23T13:51:08;12.07;;;3.47;;
61869;SDS011;47810;42.264;23.826;2022-07-23T13:53:33;9.23;;;3.35;;
61869;SDS011;47810;42.264;23.826;2022-07-23T13:56:03;15.43;;;3.42;;
61869;SDS011;47810;42.264;23.826;2022-07-23T13:58:29;10.50;;;2.83;;
61869;SDS011;47810;42.264;23.826;2022-07-23T14:00:55;14.90;;;3.65;;
61869;SDS011;47810;42.264;23.826;2022-07-23T14:03:22;11.70;;;3.08;;
61869;SDS011;47810;42.264;23.826;2022-07-23T14:05:49;15.43;;;3.22;;
61869;SDS011;47810;42.264;23.826;2022-07-23T14:08:18;11.23;;;3.40;;
61869;SDS011;47810;42.264;23.826;2022-07-23T14:10:44;14.95;;;3.63;;
61869;SDS011;47810;42.264;23.826;2022-07-23T14:13:11;14.02;;;3.03;;
61869;SDS011;47810;42.264;23.826;2022-07-23T14:15:36;19.30;;;3.45;;
61869;SDS011;47810;42.264;23.826;2022-07-23T14:18:07;31.17;;;3.88;;
61869;SDS011;47810;42.264;23.826;2022-07-23T14:20:33;14.65;;;3.55;;
61869;SDS011;47810;42.264;23.826;2022-07-23T14:22:59;12.70;;;3.58;;
61869;SDS011;47810;42.264;23.826;2022-07-23T14:25:25;14.52;;;3.30;;
61869;SDS011;47810;42.264;23.826;2022-07-23T14:27:52;7.65;;;3.08;;
61869;SDS011;47810;42.264;23.826;2022-07-23T14:30:19;14.95;;;3.42;;
61869;SDS011;47810;42.264;23.826;2022-07-23T14:32:49;52.53;;;5.78;;
61869;SDS011;47810;42.264;23.826;2022-07-23T14:35:15;18.13;;;3.90;;
61869;SDS011;47810;42.264;23.826;2022-07-23T14:37:41;9.40;;;3.63;;
61869;SDS011;47810;42.264;23.826;2022-07-23T14:40:07;9.23;;;3.20;;
61869;SDS011;47810;42.264;23.826;2022-07-23T14:42:33;10.38;;;3.67;;
61869;SDS011;47810;42.264;23.826;2022-07-23T14:44:59;11.45;;;3.60;;
61869;SDS011;47810;42.264;23.826;2022-07-23T14:47:31;18.48;;;4.10;;
61869;SDS011;47810;42.264;23.826;2022-07-23T14:49:57;12.25;;;3.70;;
61869;SDS011;47810;42.264;23.826;2022-07-23T14:52:23;16.88;;;4.25;;
61869;SDS011;47810;42.264;23.826;2022-07-23T14:54:48;13.45;;;4.22;;
61869;SDS011;47810;42.264;23.826;2022-07-23T14:57:14;15.90;;;3.67;;
61869;SDS011;47810;42.264;23.826;2022-07-23T14:59:40;35.42;;;4.85;;
61869;SDS011;47810;42.264;23.826;2022-07-23T15:02:08;20.00;;;3.90;;
61869;SDS011;47810;42.264;23.826;2022-07-23T15:04:33;23.58;;;4.38;;
61869;SDS011;47810;42.264;23.826;2022-07-23T15:07:00;47.55;;;5.50;;
61869;SDS011;47810;42.264;23.826;2022-07-23T15:09:27;24.98;;;4.05;;
61869;SDS011;47810;42.264;23.826;2022-07-23T15:11:53;11.05;;;3.42;;
61869;SDS011;47810;42.264;23.826;2022-07-23T15:14:18;13.25;;;3.88;;
61869;SDS011;47810;42.264;23.826;2022-07-23T15:16:45;21.48;;;4.07;;
61869;SDS011;47810;42.264;23.826;2022-07-23T15:19:11;12.07;;;3.45;;
61869;SDS011;47810;42.264;23.826;2022-07-23T15:21:37;12.57;;;3.60;;
61869;SDS011;47810;42.264;23.826;2022-07-23T15:24:02;19.15;;;4.07;;
61869;SDS011;47810;42.264;23.826;2022-07-23T15:26:29;10.25;;;3.42;;
61869;SDS011;47810;42.264;23.826;2022-07-23T15:28:55;10.20;;;4.28;;